Time;durP1;ratioP1;P1;durP2;ratioP2;P2;SDS_P1;SDS_P2;PMS_P1;PMS_P2;Temp;Humidity;BMP_temperature;BMP_pressure;BME280_temperature;BME280_humidity;BME280_pressure;Samples;Min_cycle;Max_cycle;Signal;HPM_P1;HPM_P2
2022/04/09 00:01:10;;;;;;;17.17;3.10;;;;;;;;;;6189341;28;20522;-72
2022/04/09 00:04:12;;;;;;;15.93;3.40;;;;;;;;;;6184646;28;20078;-74
2022/04/09 00:07:14;;;;;;;17.88;4.03;;;;;;;;;;6185051;28;20365;-73
2022/04/09 00:10:16;;;;;;;15.52;3.55;;;;;;;;;;6185986;28;20042;-72
2022/04/09 00:13:19;;;;;;;14.32;3.05;;;;;;;;;;6186810;28;20061;-73
2022/04/09 00:16:22;;;;;;;13.35;2.28;;;;;;;;;;6186796;28;20090;-73
2022/04/09 00:19:24;;;;;;;13.13;2.30;;;;;;;;;;6187786;28;20644;-74
2022/04/09 00:22:25;;;;;;;15.48;2.83;;;;;;;;;;6180600;28;20486;-73
2022/04/09 00:25:27;;;;;;;14.15;2.60;;;;;;;;;;6179222;28;20293;-74
2022/04/09 00:28:29;;;;;;;9.68;2.35;;;;;;;;;;6185206;28;20137;-75
2022/04/09 00:31:32;;;;;;;8.68;2.72;;;;;;;;;;6185360;28;20053;-73
2022/04/09 00:34:34;;;;;;;12.23;2.05;;;;;;;;;;6190116;28;20494;-74
2022/04/09 00:37:42;;;;;;;11.18;2.05;;;;;;;;;;6187523;28;20034;-74
2022/04/09 00:40:43;;;;;;;8.30;2.20;;;;;;;;;;6187020;28;20050;-72
2022/04/09 00:43:45;;;;;;;8.55;2.15;;;;;;;;;;6184696;28;20209;-71
2022/04/09 00:46:48;;;;;;;8.40;2.05;;;;;;;;;;6187456;28;20058;-71
2022/04/09 00:49:50;;;;;;;10.23;2.10;;;;;;;;;;6189627;28;20042;-71
2022/04/09 00:52:54;;;;;;;8.25;2.55;;;;;;;;;;6190349;28;20520;-71
2022/04/09 00:56:15;;;;;;;10.30;3.03;;;;;;;;;;6191944;28;20132;-71
2022/04/09 00:59:17;;;;;;;9.65;2.10;;;;;;;;;;6182461;28;20054;-71
2022/04/09 01:02:20;;;;;;;8.50;2.17;;;;;;;;;;6183688;28;20050;-71
2022/04/09 01:05:22;;;;;;;10.93;2.73;;;;;;;;;;6186362;28;20090;-71
2022/04/09 01:08:25;;;;;;;11.93;2.45;;;;;;;;;;6185873;28;20056;-71
2022/04/09 01:11:27;;;;;;;12.07;2.40;;;;;;;;;;6186376;28;20156;-71
2022/04/09 01:14:29;;;;;;;12.93;2.70;;;;;;;;;;6186115;28;20558;-70
2022/04/09 01:17:32;;;;;;;10.60;2.30;;;;;;;;;;6186287;28;20082;-70
2022/04/09 01:20:33;;;;;;;13.40;2.40;;;;;;;;;;6186446;28;20494;-71
2022/04/09 01:23:37;;;;;;;10.32;2.25;;;;;;;;;;6186782;28;20061;-70
2022/04/09 01:26:38;;;;;;;9.95;2.33;;;;;;;;;;6189016;28;20042;-71
2022/04/09 01:29:43;;;;;;;11.90;2.10;;;;;;;;;;6188784;28;20046;-71
2022/04/09 01:32:45;;;;;;;9.23;2.63;;;;;;;;;;6190608;28;20129;-71
2022/04/09 01:35:48;;;;;;;10.73;3.25;;;;;;;;;;6190922;28;20197;-71
2022/04/09 01:38:51;;;;;;;11.57;2.50;;;;;;;;;;6185886;28;20050;-71
2022/04/09 01:41:52;;;;;;;11.33;2.10;;;;;;;;;;6186871;28;20054;-71
2022/04/09 01:44:54;;;;;;;8.38;2.00;;;;;;;;;;6191106;28;20144;-71
2022/04/09 01:47:56;;;;;;;10.00;2.92;;;;;;;;;;6185021;28;20303;-71
2022/04/09 01:50:58;;;;;;;8.52;1.90;;;;;;;;;;6182326;28;20053;-71
2022/04/09 01:54:01;;;;;;;15.55;2.88;;;;;;;;;;6184821;28;20048;-71
2022/04/09 01:57:03;;;;;;;18.53;2.57;;;;;;;;;;6184127;28;20494;-71
2022/04/09 02:00:07;;;;;;;15.75;3.15;;;;;;;;;;6181276;28;20058;-71
2022/04/09 02:03:08;;;;;;;12.27;2.75;;;;;;;;;;6182107;28;20050;-71
2022/04/09 02:06:11;;;;;;;9.35;2.40;;;;;;;;;;6181220;28;20117;-71
2022/04/09 02:09:14;;;;;;;8.15;2.30;;;;;;;;;;6178797;28;20948;-71
2022/04/09 02:12:16;;;;;;;11.97;2.13;;;;;;;;;;6181284;28;20100;-71
2022/04/09 02:15:18;;;;;;;10.45;2.45;;;;;;;;;;6182257;28;20132;-71
2022/04/09 02:18:19;;;;;;;9.77;2.60;;;;;;;;;;6181616;28;20054;-71
2022/04/09 02:21:21;;;;;;;13.88;2.60;;;;;;;;;;6182749;28;20128;-71
2022/04/09 02:24:24;;;;;;;12.95;2.80;;;;;;;;;;6183537;28;20061;-71
2022/04/09 02:27:26;;;;;;;11.40;2.73;;;;;;;;;;6186374;28;20105;-71
2022/04/09 02:30:27;;;;;;;11.32;2.55;;;;;;;;;;6185379;28;20058;-71
2022/04/09 02:33:29;;;;;;;10.15;2.28;;;;;;;;;;6188613;28;20133;-71
2022/04/09 02:36:32;;;;;;;13.27;2.33;;;;;;;;;;6185369;28;20133;-71
2022/04/09 02:39:35;;;;;;;11.05;2.65;;;;;;;;;;6190050;28;20053;-71
2022/04/09 02:42:37;;;;;;;9.30;2.35;;;;;;;;;;6192014;28;20497;-71
2022/04/09 02:45:39;;;;;;;8.38;2.15;;;;;;;;;;6189874;28;20050;-71
2022/04/09 02:48:40;;;;;;;13.00;3.05;;;;;;;;;;6191373;28;20058;-71
2022/04/09 02:51:42;;;;;;;13.20;2.38;;;;;;;;;;6192887;28;20038;-71
2022/04/09 02:54:46;;;;;;;7.97;2.10;;;;;;;;;;6181087;28;20051;-71
2022/04/09 02:57:48;;;;;;;;;;;;;;;;;;6177040;28;20154;-71
2022/04/09 03:00:50;;;;;;;15.43;3.05;;;;;;;;;;6178242;28;19938;-71
2022/04/09 03:03:51;;;;;;;12.57;3.35;;;;;;;;;;6176598;28;20520;-71
2022/04/09 03:06:53;;;;;;;17.63;2.90;;;;;;;;;;6183362;28;20062;-71
2022/04/09 03:09:56;;;;;;;16.33;3.38;;;;;;;;;;6180448;28;20046;-71
2022/04/09 03:12:58;;;;;;;17.13;3.13;;;;;;;;;;6179736;28;20522;-71
2022/04/09 03:15:59;;;;;;;9.25;3.15;;;;;;;;;;6181696;28;20054;-71
2022/04/09 03:19:01;;;;;;;13.75;3.10;;;;;;;;;;6182583;28;20054;-71
2022/04/09 03:22:03;;;;;;;12.55;2.85;;;;;;;;;;6181272;28;20062;-71
2022/04/09 03:25:07;;;;;;;14.85;3.13;;;;;;;;;;6183698;28;20046;-71
2022/04/09 03:28:09;;;;;;;12.15;3.42;;;;;;;;;;6181849;28;20367;-71
2022/04/09 03:31:10;;;;;;;12.00;2.47;;;;;;;;;;6187102;28;20047;-71
2022/04/09 03:34:12;;;;;;;12.57;3.30;;;;;;;;;;6190294;28;20046;-71
2022/04/09 03:37:14;;;;;;;13.38;3.88;;;;;;;;;;6188427;28;20059;-71
2022/04/09 03:40:17;;;;;;;14.32;3.22;;;;;;;;;;6190188;28;20054;-71
2022/04/09 03:43:18;;;;;;;12.50;2.83;;;;;;;;;;6192834;28;20059;-71
2022/04/09 03:46:20;;;;;;;11.55;2.92;;;;;;;;;;6193627;28;20125;-71
2022/04/09 03:49:21;;;;;;;9.88;2.55;;;;;;;;;;6194278;28;20062;-71
2022/04/09 03:52:23;;;;;;;21.60;4.53;;;;;;;;;;6196907;28;20050;-71
2022/04/09 03:55:26;;;;;;;16.83;3.83;;;;;;;;;;6188193;28;20082;-71
2022/04/09 03:58:28;;;;;;;9.05;3.38;;;;;;;;;;6188067;28;20962;-71
2022/04/09 04:01:29;;;;;;;13.10;3.08;;;;;;;;;;6187602;28;20489;-71
2022/04/09 04:04:32;;;;;;;9.65;2.95;;;;;;;;;;6183935;28;20049;-71
2022/04/09 04:07:34;;;;;;;15.77;2.75;;;;;;;;;;6182532;28;20058;-71
2022/04/09 04:10:37;;;;;;;11.02;2.92;;;;;;;;;;6180662;28;20141;-71
2022/04/09 04:13:39;;;;;;;9.20;2.75;;;;;;;;;;6180216;28;20046;-71
2022/04/09 04:16:40;;;;;;;12.38;2.80;;;;;;;;;;6183244;28;20414;-71
2022/04/09 04:19:42;;;;;;;9.07;2.97;;;;;;;;;;6185318;28;20073;-71
2022/04/09 04:22:44;;;;;;;9.80;3.03;;;;;;;;;;6184446;28;20047;-71
2022/04/09 04:25:47;;;;;;;14.88;3.70;;;;;;;;;;6180475;28;20515;-71
2022/04/09 04:28:49;;;;;;;20.52;3.20;;;;;;;;;;6186905;28;20485;-71
2022/04/09 04:31:50;;;;;;;12.75;2.78;;;;;;;;;;6187677;28;20050;-71
2022/04/09 04:34:52;;;;;;;9.05;3.30;;;;;;;;;;6188344;28;20125;-71
2022/04/09 04:37:54;;;;;;;13.30;3.50;;;;;;;;;;6188622;28;20050;-71
2022/04/09 04:40:57;;;;;;;14.35;3.75;;;;;;;;;;6190555;28;20057;-70
2022/04/09 04:43:58;;;;;;;19.05;4.15;;;;;;;;;;6189953;28;20091;-70
2022/04/09 04:47:00;;;;;;;13.63;3.72;;;;;;;;;;6190535;28;20054;-70
2022/04/09 04:50:04;;;;;;;14.10;3.47;;;;;;;;;;6191200;28;20588;-70
2022/04/09 04:53:05;;;;;;;14.15;3.55;;;;;;;;;;6189155;28;20054;-70
2022/04/09 04:56:08;;;;;;;13.52;3.80;;;;;;;;;;6181503;28;20137;-70
2022/04/09 04:59:11;;;;;;;14.88;4.60;;;;;;;;;;6179677;28;20052;-70
2022/04/09 05:02:12;;;;;;;10.82;3.70;;;;;;;;;;6181738;28;20071;-70
2022/04/09 05:05:14;;;;;;;13.77;5.30;;;;;;;;;;6182776;28;20189;-70
2022/04/09 05:08:15;;;;;;;13.32;3.55;;;;;;;;;;6183326;28;20054;-70
2022/04/09 05:11:18;;;;;;;12.38;4.20;;;;;;;;;;6184325;28;20146;-70
2022/04/09 05:14:20;;;;;;;12.75;4.18;;;;;;;;;;6187771;28;20058;-71
2022/04/09 05:17:21;;;;;;;12.38;4.38;;;;;;;;;;6188311;28;20042;-71
2022/04/09 05:20:23;;;;;;;13.35;4.78;;;;;;;;;;6187958;28;20051;-70
2022/04/09 05:23:25;;;;;;;9.75;4.82;;;;;;;;;;6178511;28;20073;-71
2022/04/09 05:26:28;;;;;;;12.57;4.47;;;;;;;;;;6181164;28;20137;-71
2022/04/09 05:29:30;;;;;;;9.90;4.78;;;;;;;;;;6183128;28;20074;-71
2022/04/09 05:32:31;;;;;;;16.13;5.05;;;;;;;;;;6181099;28;20065;-71
2022/04/09 05:35:33;;;;;;;16.00;5.05;;;;;;;;;;6183950;28;20554;-71
2022/04/09 05:38:35;;;;;;;12.88;4.70;;;;;;;;;;6187553;28;20117;-71
2022/04/09 05:41:38;;;;;;;9.63;4.22;;;;;;;;;;6185223;28;20058;-71
2022/04/09 05:44:40;;;;;;;10.75;4.47;;;;;;;;;;6185985;28;20046;-71
2022/04/09 05:47:42;;;;;;;11.85;4.63;;;;;;;;;;6186968;28;20045;-71
2022/04/09 05:50:43;;;;;;;13.10;4.38;;;;;;;;;;6187640;28;20550;-71
2022/04/09 05:53:45;;;;;;;8.88;4.22;;;;;;;;;;6181405;28;20105;-70
2022/04/09 05:56:48;;;;;;;13.98;4.72;;;;;;;;;;6179884;28;20130;-71
2022/04/09 05:59:49;;;;;;;11.38;4.00;;;;;;;;;;6177050;28;20122;-71
2022/04/09 06:02:51;;;;;;;14.55;4.78;;;;;;;;;;6179813;28;20061;-70
2022/04/09 06:05:53;;;;;;;10.77;4.43;;;;;;;;;;6180591;28;20043;-71
2022/04/09 06:08:54;;;;;;;10.80;3.83;;;;;;;;;;6181904;28;20484;-71
2022/04/09 06:11:57;;;;;;;14.60;4.57;;;;;;;;;;6182685;28;20493;-71
2022/04/09 06:14:59;;;;;;;9.15;3.70;;;;;;;;;;6183107;28;20049;-71
2022/04/09 06:18:05;;;;;;;12.65;4.05;;;;;;;;;;6183237;28;20081;-71
2022/04/09 06:21:07;;;;;;;5.78;3.42;;;;;;;;;;6186549;28;20061;-71
2022/04/09 06:24:08;;;;;;;12.15;3.63;;;;;;;;;;6186605;28;20069;-71
2022/04/09 06:27:13;;;;;;;11.57;4.05;;;;;;;;;;6185585;28;20524;-71
2022/04/09 06:30:14;;;;;;;10.88;3.90;;;;;;;;;;6186269;28;20371;-71
2022/04/09 06:33:16;;;;;;;13.35;3.58;;;;;;;;;;6189570;28;20051;-71
2022/04/09 06:36:18;;;;;;;9.75;3.17;;;;;;;;;;6191961;28;20072;-70
2022/04/09 06:39:20;;;;;;;9.48;2.90;;;;;;;;;;6179166;28;20046;-70
2022/04/09 06:42:23;;;;;;;11.13;3.25;;;;;;;;;;6182986;28;20188;-71
2022/04/09 06:45:25;;;;;;;7.77;3.27;;;;;;;;;;6183666;28;20050;-71
2022/04/09 06:48:27;;;;;;;7.30;3.38;;;;;;;;;;6185698;28;20536;-71
2022/04/09 06:51:28;;;;;;;8.05;3.28;;;;;;;;;;6180794;28;20099;-69
2022/04/09 06:54:30;;;;;;;7.03;2.85;;;;;;;;;;6183114;28;20434;-69
2022/04/09 06:57:33;;;;;;;6.75;2.90;;;;;;;;;;6176737;28;20051;-69
2022/04/09 07:00:35;;;;;;;7.05;2.88;;;;;;;;;;6179092;28;20059;-68
2022/04/09 07:03:36;;;;;;;6.85;2.25;;;;;;;;;;6182363;28;20062;-68
2022/04/09 07:06:38;;;;;;;7.13;2.70;;;;;;;;;;6181229;28;20057;-68
2022/04/09 07:09:40;;;;;;;3.63;1.95;;;;;;;;;;6177864;28;20074;-68
2022/04/09 07:12:43;;;;;;;9.13;2.13;;;;;;;;;;6182773;28;20455;-70
2022/04/09 07:15:44;;;;;;;5.38;2.10;;;;;;;;;;6182372;28;20089;-69
2022/04/09 07:18:46;;;;;;;7.53;2.22;;;;;;;;;;6182868;28;20042;-69
2022/04/09 07:21:49;;;;;;;4.20;1.80;;;;;;;;;;6184319;28;20070;-69
2022/04/09 07:24:50;;;;;;;6.23;1.37;;;;;;;;;;6185181;28;20081;-69
2022/04/09 07:27:53;;;;;;;7.63;1.85;;;;;;;;;;6182844;28;20072;-69
2022/04/09 07:30:55;;;;;;;6.72;1.60;;;;;;;;;;6187251;28;20522;-68
2022/04/09 07:33:56;;;;;;;5.45;1.33;;;;;;;;;;6188366;28;20050;-69
2022/04/09 07:36:58;;;;;;;6.18;1.27;;;;;;;;;;6189343;28;20117;-69
2022/04/09 07:40:00;;;;;;;6.78;1.25;;;;;;;;;;6188959;28;20125;-69
2022/04/09 07:43:03;;;;;;;2.92;1.08;;;;;;;;;;6192513;28;20046;-69
2022/04/09 07:46:04;;;;;;;4.25;0.63;;;;;;;;;;6191794;28;20124;-69
2022/04/09 07:49:06;;;;;;;8.38;0.57;;;;;;;;;;6194029;28;20046;-69
2022/04/09 07:52:08;;;;;;;4.80;0.35;;;;;;;;;;6181538;28;20057;-69
2022/04/09 07:55:11;;;;;;;4.93;1.00;;;;;;;;;;6176774;28;20106;-69
2022/04/09 07:58:14;;;;;;;10.27;0.40;;;;;;;;;;6177806;28;20047;-69
2022/04/09 08:01:16;;;;;;;;;;;;;;;;;;6178156;28;20178;-69
2022/04/09 08:04:17;;;;;;;4.57;0.47;;;;;;;;;;6178146;28;19926;-69
2022/04/09 08:07:19;;;;;;;14.77;1.15;;;;;;;;;;6179473;28;20050;-68
2022/04/09 08:10:21;;;;;;;12.23;1.50;;;;;;;;;;6180379;28;20061;-69
2022/04/09 08:13:24;;;;;;;2.15;0.32;;;;;;;;;;6178895;28;20150;-68
2022/04/09 08:16:26;;;;;;;2.20;0.40;;;;;;;;;;6182463;28;20146;-69
2022/04/09 08:19:27;;;;;;;13.05;0.50;;;;;;;;;;6186599;28;20042;-71
2022/04/09 08:22:29;;;;;;;4.20;0.65;;;;;;;;;;6188982;28;20050;-71
2022/04/09 08:25:31;;;;;;;13.73;0.85;;;;;;;;;;6186083;28;20104;-69
2022/04/09 08:28:36;;;;;;;4.30;0.98;;;;;;;;;;6188542;28;20628;-70
2022/04/09 08:31:37;;;;;;;1.30;0.28;;;;;;;;;;6188070;28;20053;-70
2022/04/09 08:34:39;;;;;;;2.28;0.30;;;;;;;;;;6189037;28;20087;-67
2022/04/09 08:37:41;;;;;;;1.40;0.30;;;;;;;;;;6189990;28;20066;-70
2022/04/09 08:40:43;;;;;;;2.92;0.40;;;;;;;;;;6190060;28;20597;-71
2022/04/09 08:43:46;;;;;;;24.40;1.38;;;;;;;;;;6189632;28;20125;-73
2022/04/09 08:46:48;;;;;;;13.25;1.15;;;;;;;;;;6191196;28;20078;-71
2022/04/09 08:49:50;;;;;;;8.80;1.17;;;;;;;;;;6187481;28;20663;-71
2022/04/09 08:52:52;;;;;;;1.77;1.23;;;;;;;;;;6177840;28;20074;-72
2022/04/09 08:55:54;;;;;;;11.43;1.05;;;;;;;;;;6183617;28;20129;-71
2022/04/09 08:58:57;;;;;;;1.45;0.38;;;;;;;;;;6183369;28;20043;-71
2022/04/09 09:01:59;;;;;;;6.53;0.43;;;;;;;;;;6181308;28;20586;-72
2022/04/09 09:05:01;;;;;;;4.72;0.50;;;;;;;;;;6183063;28;20381;-72
2022/04/09 09:08:03;;;;;;;6.22;0.38;;;;;;;;;;6183675;28;20047;-72
2022/04/09 09:11:05;;;;;;;5.93;0.60;;;;;;;;;;6175404;28;20412;-72
2022/04/09 09:14:08;;;;;;;4.90;0.40;;;;;;;;;;6182088;28;20062;-72
2022/04/09 09:17:09;;;;;;;15.45;0.80;;;;;;;;;;6180599;28;20122;-71
2022/04/09 09:20:14;;;;;;;4.57;0.60;;;;;;;;;;6181574;28;20126;-72
2022/04/09 09:23:20;;;;;;;10.70;0.75;;;;;;;;;;6179946;28;20498;-71
2022/04/09 09:26:23;;;;;;;3.28;0.40;;;;;;;;;;6184192;28;20051;-71
2022/04/09 09:29:29;;;;;;;5.82;0.70;;;;;;;;;;6180676;28;20134;-71
2022/04/09 09:32:31;;;;;;;7.60;0.60;;;;;;;;;;6181122;28;20501;-71
2022/04/09 09:35:48;;;;;;;13.18;0.85;;;;;;;;;;6184021;28;20047;-72
2022/04/09 09:39:02;;;;;;;3.83;0.43;;;;;;;;;;6181109;28;20105;-73
2022/04/09 09:42:04;;;;;;;13.50;1.10;;;;;;;;;;6187095;28;20173;-71
2022/04/09 09:45:09;;;;;;;9.30;0.65;;;;;;;;;;6186860;28;20154;-72
2022/04/09 09:48:23;;;;;;;4.82;0.30;;;;;;;;;;6185872;28;20043;-72
2022/04/09 09:51:26;;;;;;;4.28;0.65;;;;;;;;;;6178101;28;20050;-71
2022/04/09 09:54:27;;;;;;;15.82;1.15;;;;;;;;;;6180593;28;20046;-71
2022/04/09 09:57:31;;;;;;;9.18;1.02;;;;;;;;;;6184184;28;20620;-71
2022/04/09 10:00:34;;;;;;;5.47;0.90;;;;;;;;;;6189416;28;20100;-76
2022/04/09 10:03:36;;;;;;;9.85;0.70;;;;;;;;;;6183193;28;20494;-72
2022/04/09 10:06:39;;;;;;;19.05;1.20;;;;;;;;;;6184890;28;20126;-70
2022/04/09 10:09:41;;;;;;;4.68;0.70;;;;;;;;;;6184176;28;20132;-70
2022/04/09 10:12:42;;;;;;;4.90;0.38;;;;;;;;;;6185974;28;20046;-71
2022/04/09 10:15:50;;;;;;;7.83;1.70;;;;;;;;;;6187504;28;20205;-70
2022/04/09 10:18:52;;;;;;;12.98;1.10;;;;;;;;;;6187276;28;20056;-70
2022/04/09 10:21:55;;;;;;;11.52;1.10;;;;;;;;;;6190187;28;20134;-70
2022/04/09 10:24:57;;;;;;;11.05;0.80;;;;;;;;;;6186658;28;20074;-71
2022/04/09 10:28:01;;;;;;;5.50;1.10;;;;;;;;;;6182332;28;20073;-71
2022/04/09 10:31:34;;;;;;;9.27;0.90;;;;;;;;;;6184294;28;21072;-71
2022/04/09 10:34:46;;;;;;;;;;;;;;;;;;6189196;28;20528;-71
2022/04/09 10:38:18;;;;;;;19.63;1.50;;;;;;;;;;6183320;28;20040;-70
2022/04/09 10:41:30;;;;;;;8.07;0.70;;;;;;;;;;6187493;28;20057;-70
2022/04/09 10:44:36;;;;;;;3.10;0.40;;;;;;;;;;6190083;28;20047;-71
2022/04/09 10:51:08;;;;;;;10.18;0.82;;;;;;;;;;6268519;27;20712;-71
2022/04/09 10:54:20;;;;;;;24.10;1.65;;;;;;;;;;6275701;28;20124;-71
2022/04/09 10:57:23;;;;;;;12.50;1.02;;;;;;;;;;6272159;28;20045;-71
2022/04/09 11:00:31;;;;;;;20.63;1.35;;;;;;;;;;6276107;28;20045;-71
2022/04/09 11:03:34;;;;;;;61.83;4.28;;;;;;;;;;6275786;28;20052;-70
2022/04/09 11:06:43;;;;;;;22.83;1.98;;;;;;;;;;6272252;28;20063;-72
2022/04/09 11:09:50;;;;;;;5.75;0.63;;;;;;;;;;6272550;28;20087;-69
2022/04/09 11:12:51;;;;;;;11.63;1.05;;;;;;;;;;6276847;28;20495;-70
2022/04/09 11:15:56;;;;;;;18.33;1.97;;;;;;;;;;6277423;28;20590;-69
2022/04/09 11:18:58;;;;;;;14.07;0.85;;;;;;;;;;6280334;28;20501;-69
2022/04/09 11:22:01;;;;;;;4.88;0.55;;;;;;;;;;6281318;28;20128;-70
2022/04/09 11:25:03;;;;;;;17.30;1.25;;;;;;;;;;6281586;28;20071;-70
2022/04/09 11:28:06;;;;;;;38.45;2.28;;;;;;;;;;6283431;28;20049;-72
2022/04/09 11:31:08;;;;;;;9.40;0.98;;;;;;;;;;6281653;28;20128;-70
2022/04/09 11:34:09;;;;;;;2.47;0.53;;;;;;;;;;6284022;28;20488;-71
2022/04/09 11:37:13;;;;;;;4.90;0.47;;;;;;;;;;6281884;28;20052;-71
2022/04/09 11:40:17;;;;;;;10.93;1.27;;;;;;;;;;6280514;28;20049;-71
2022/04/09 11:43:20;;;;;;;1.33;0.50;;;;;;;;;;6283380;28;20064;-72
2022/04/09 11:46:22;;;;;;;1.67;0.50;;;;;;;;;;6278004;28;20092;-71
2022/04/09 11:49:29;;;;;;;23.02;2.28;;;;;;;;;;6274567;28;20052;-71
2022/04/09 11:52:32;;;;;;;10.23;0.85;;;;;;;;;;6276444;28;20128;-71
2022/04/09 11:55:34;;;;;;;7.70;1.13;;;;;;;;;;6272755;28;20052;-71
2022/04/09 11:58:35;;;;;;;18.83;1.27;;;;;;;;;;6270126;28;20120;-72
2022/04/09 12:01:37;;;;;;;9.47;0.97;;;;;;;;;;6260529;28;20447;-73
2022/04/09 12:04:39;;;;;;;6.43;0.90;;;;;;;;;;6254861;28;20175;-75
2022/04/09 12:07:43;;;;;;;8.37;0.63;;;;;;;;;;6258045;28;20450;-75
2022/04/09 12:10:53;;;;;;;5.75;0.60;;;;;;;;;;6261887;28;20146;-80
2022/04/09 12:13:54;;;;;;;11.25;1.10;;;;;;;;;;6258293;28;20154;-79
2022/04/09 12:16:56;;;;;;;6.20;0.80;;;;;;;;;;6258817;28;20071;-78
2022/04/09 12:19:58;;;;;;;4.30;0.80;;;;;;;;;;6260606;28;20041;-75
2022/04/09 12:23:02;;;;;;;9.10;0.85;;;;;;;;;;6258363;28;20080;-76
2022/04/09 12:26:04;;;;;;;10.40;0.85;;;;;;;;;;6260990;28;20412;-74
2022/04/09 12:29:08;;;;;;;3.00;0.70;;;;;;;;;;6264755;28;20057;-74
2022/04/09 12:32:18;;;;;;;3.08;0.70;;;;;;;;;;6259296;28;20056;-73
2022/04/09 12:35:21;;;;;;;3.67;0.50;;;;;;;;;;6264155;28;20484;-71
2022/04/09 12:38:35;;;;;;;4.90;0.60;;;;;;;;;;6266334;28;20139;-72
2022/04/09 12:41:45;;;;;;;2.08;0.68;;;;;;;;;;6263573;28;20404;-70
2022/04/09 12:44:47;;;;;;;1.67;0.50;;;;;;;;;;6263689;28;20104;-70
2022/04/09 12:47:54;;;;;;;13.60;2.15;;;;;;;;;;6252801;28;20135;-70
2022/04/09 12:50:56;;;;;;;11.80;1.52;;;;;;;;;;6257595;28;20055;-69
2022/04/09 12:54:00;;;;;;;4.40;1.15;;;;;;;;;;6258627;28;20045;-70
2022/04/09 12:57:06;;;;;;;0.40;0.40;;;;;;;;;;6249248;28;20042;-70
2022/04/09 13:00:09;;;;;;;6.30;0.70;;;;;;;;;;6251481;28;20047;-71
2022/04/09 13:03:13;;;;;;;2.85;0.65;;;;;;;;;;6248142;28;20053;-70
2022/04/09 13:06:14;;;;;;;16.58;1.35;;;;;;;;;;6252896;28;20042;-71
2022/04/09 13:09:17;;;;;;;124.40;9.10;;;;;;;;;;6254217;28;20448;-71
2022/04/09 13:12:19;;;;;;;6.20;1.13;;;;;;;;;;6256045;28;20133;-72
2022/04/09 13:15:21;;;;;;;5.13;0.85;;;;;;;;;;6255073;28;20041;-71
2022/04/09 13:18:23;;;;;;;3.33;1.27;;;;;;;;;;6254736;28;20065;-71
2022/04/09 13:21:24;;;;;;;5.57;0.80;;;;;;;;;;6258414;28;20276;-74
2022/04/09 13:24:27;;;;;;;2.73;0.73;;;;;;;;;;6255710;28;20425;-73
2022/04/09 13:27:29;;;;;;;4.20;1.08;;;;;;;;;;6257650;28;20758;-74
2022/04/09 13:30:32;;;;;;;2.17;0.60;;;;;;;;;;6258086;28;20053;-74
2022/04/09 13:33:33;;;;;;;10.95;0.80;;;;;;;;;;6259657;28;20147;-72
2022/04/09 13:36:35;;;;;;;10.15;0.85;;;;;;;;;;6263117;28;20191;-73
2022/04/09 13:39:38;;;;;;;37.58;24.98;;;;;;;;;;6259392;28;20755;-77
2022/04/09 13:42:41;;;;;;;13.70;4.45;;;;;;;;;;6261936;28;20053;-74
2022/04/09 13:45:43;;;;;;;25.27;2.85;;;;;;;;;;6256829;28;20045;-73
2022/04/09 13:48:45;;;;;;;2.80;0.60;;;;;;;;;;6258334;28;20190;-74
2022/04/09 13:51:46;;;;;;;17.08;2.83;;;;;;;;;;6249932;28;20746;-74
2022/04/09 13:54:50;;;;;;;8.13;1.23;;;;;;;;;;6246208;28;20042;-73
2022/04/09 13:57:52;;;;;;;5.03;0.60;;;;;;;;;;6251995;28;20068;-74
2022/04/09 14:00:54;;;;;;;7.70;0.70;;;;;;;;;;6251876;28;20201;-74
2022/04/09 14:03:55;;;;;;;4.95;1.10;;;;;;;;;;6254157;28;20128;-74
2022/04/09 14:06:57;;;;;;;18.15;1.70;;;;;;;;;;6253593;28;20167;-74
2022/04/09 14:10:00;;;;;;;8.70;0.80;;;;;;;;;;6254286;28;20049;-75
2022/04/09 14:13:02;;;;;;;15.60;1.33;;;;;;;;;;6250354;28;20056;-74
2022/04/09 14:16:04;;;;;;;21.13;1.65;;;;;;;;;;6251706;28;20504;-74
2022/04/09 14:19:06;;;;;;;8.75;0.88;;;;;;;;;;6250765;28;20158;-73
2022/04/09 14:22:08;;;;;;;4.17;0.70;;;;;;;;;;6247209;28;20045;-73
2022/04/09 14:25:11;;;;;;;3.17;0.40;;;;;;;;;;6248287;28;20041;-74
2022/04/09 14:28:14;;;;;;;13.60;1.30;;;;;;;;;;6254291;28;20460;-74
2022/04/09 14:31:16;;;;;;;;;;;;;;;;;;6255769;28;20084;-73
2022/04/09 14:34:18;;;;;;;4.68;0.80;;;;;;;;;;6254266;28;19928;-73
2022/04/09 14:37:19;;;;;;;5.27;0.60;;;;;;;;;;6252429;28;20432;-74
2022/04/09 14:40:22;;;;;;;14.98;2.17;;;;;;;;;;6254552;28;20474;-73
2022/04/09 14:43:25;;;;;;;1.38;0.50;;;;;;;;;;6252980;28;20057;-73
2022/04/09 14:46:27;;;;;;;12.38;1.65;;;;;;;;;;6245708;28;20179;-73
2022/04/09 14:49:29;;;;;;;10.70;1.30;;;;;;;;;;6247741;28;20760;-73
2022/04/09 14:52:30;;;;;;;4.25;0.70;;;;;;;;;;6251753;28;20069;-73
2022/04/09 14:55:34;;;;;;;5.57;0.73;;;;;;;;;;6249217;28;20136;-72
2022/04/09 14:58:36;;;;;;;5.00;0.82;;;;;;;;;;6251892;28;20175;-74
2022/04/09 15:01:37;;;;;;;9.30;0.90;;;;;;;;;;6253677;28;20486;-71
2022/04/09 15:04:39;;;;;;;13.77;1.00;;;;;;;;;;6252660;28;20457;-74
2022/04/09 15:07:41;;;;;;;0.87;0.40;;;;;;;;;;6252758;28;20488;-72
2022/04/09 15:10:45;;;;;;;3.58;1.02;;;;;;;;;;6255892;28;20285;-73
2022/04/09 15:13:46;;;;;;;9.80;0.93;;;;;;;;;;6256620;28;20130;-74
2022/04/09 15:16:48;;;;;;;21.13;1.00;;;;;;;;;;6257709;28;20058;-72
2022/04/09 15:19:50;;;;;;;10.77;0.93;;;;;;;;;;6257579;28;20041;-72
2022/04/09 15:22:51;;;;;;;5.70;0.65;;;;;;;;;;6257873;28;20548;-73
2022/04/09 15:25:54;;;;;;;4.05;0.57;;;;;;;;;;6247874;28;20531;-73
2022/04/09 15:28:56;;;;;;;4.78;0.60;;;;;;;;;;6252329;28;20080;-72
2022/04/09 15:31:58;;;;;;;2.33;0.50;;;;;;;;;;6252357;28;20049;-73
2022/04/09 15:34:59;;;;;;;17.42;9.82;;;;;;;;;;6253821;28;20088;-72
2022/04/09 15:38:01;;;;;;;19.20;7.23;;;;;;;;;;6260092;28;20115;-73
2022/04/09 15:41:05;;;;;;;12.32;1.02;;;;;;;;;;6260542;28;20668;-73
2022/04/09 15:44:07;;;;;;;5.20;1.08;;;;;;;;;;6256867;28;20041;-73
2022/04/09 15:47:09;;;;;;;3.75;0.93;;;;;;;;;;6259251;28;20199;-73
2022/04/09 15:50:11;;;;;;;23.27;1.37;;;;;;;;;;6255397;28;20048;-73
2022/04/09 15:53:12;;;;;;;7.80;0.82;;;;;;;;;;6254986;28;20050;-72
2022/04/09 15:56:16;;;;;;;8.45;0.85;;;;;;;;;;6252972;28;20140;-72
2022/04/09 15:59:18;;;;;;;6.72;0.70;;;;;;;;;;6255565;28;20993;-71
2022/04/09 16:02:19;;;;;;;8.38;0.98;;;;;;;;;;6256458;28;20080;-72
2022/04/09 16:05:21;;;;;;;3.00;0.88;;;;;;;;;;6254967;28;20124;-72
2022/04/09 16:08:22;;;;;;;5.20;0.80;;;;;;;;;;6257025;28;20088;-72
2022/04/09 16:11:26;;;;;;;4.10;0.70;;;;;;;;;;6253415;28;20052;-73
2022/04/09 16:14:27;;;;;;;2.10;0.77;;;;;;;;;;6256103;28;20130;-72
2022/04/09 16:17:29;;;;;;;3.97;0.80;;;;;;;;;;6257791;28;20049;-72
2022/04/09 16:20:31;;;;;;;2.00;0.43;;;;;;;;;;6262332;28;20045;-72
2022/04/09 16:23:32;;;;;;;7.18;0.70;;;;;;;;;;6260806;28;20481;-72
2022/04/09 16:26:35;;;;;;;1.02;0.43;;;;;;;;;;6262600;28;20199;-72
2022/04/09 16:29:37;;;;;;;3.45;0.77;;;;;;;;;;6264871;28;20512;-73
2022/04/09 16:32:39;;;;;;;5.23;0.70;;;;;;;;;;6267440;28;20041;-73
2022/04/09 16:35:41;;;;;;;2.00;0.80;;;;;;;;;;6264430;28;20490;-73
2022/04/09 16:38:42;;;;;;;11.27;0.60;;;;;;;;;;6269376;28;20158;-73
2022/04/09 16:41:45;;;;;;;8.18;0.90;;;;;;;;;;6255194;28;20056;-73
2022/04/09 16:44:46;;;;;;;;;;;;;;;;;;6254593;28;20172;-73
2022/04/09 16:47:48;;;;;;;3.60;0.70;;;;;;;;;;6250865;28;20031;-73
2022/04/09 16:50:50;;;;;;;6.13;0.88;;;;;;;;;;6251913;28;20054;-73
2022/04/09 16:53:52;;;;;;;6.55;0.88;;;;;;;;;;6254587;28;20045;-71
2022/04/09 16:56:55;;;;;;;9.05;0.75;;;;;;;;;;6253931;28;20144;-72
2022/04/09 16:59:57;;;;;;;10.00;1.40;;;;;;;;;;6255169;28;20056;-72
2022/04/09 17:02:58;;;;;;;3.75;0.50;;;;;;;;;;6255018;28;20055;-72
2022/04/09 17:06:00;;;;;;;7.55;0.70;;;;;;;;;;6252899;28;20045;-72
2022/04/09 17:09:02;;;;;;;17.40;1.20;;;;;;;;;;6264918;28;20045;-73
2022/04/09 17:12:06;;;;;;;22.17;1.73;;;;;;;;;;6257724;28;20052;-72
2022/04/09 17:15:09;;;;;;;2.92;0.80;;;;;;;;;;6256288;28;20041;-72
2022/04/09 17:18:11;;;;;;;5.30;1.30;;;;;;;;;;6256273;28;20057;-72
2022/04/09 17:21:12;;;;;;;2.47;0.95;;;;;;;;;;6252348;28;20065;-72
2022/04/09 17:24:14;;;;;;;4.35;0.82;;;;;;;;;;6258796;28;20041;-72
2022/04/09 17:27:17;;;;;;;7.97;0.77;;;;;;;;;;6259320;28;20402;-72
2022/04/09 17:30:19;;;;;;;13.93;1.30;;;;;;;;;;6256388;28;20036;-72
2022/04/09 17:33:20;;;;;;;9.43;1.05;;;;;;;;;;6258793;28;20045;-72
2022/04/09 17:36:22;;;;;;;1.75;0.85;;;;;;;;;;6259920;28;20053;-72
2022/04/09 17:39:24;;;;;;;1.02;0.60;;;;;;;;;;6260853;28;20052;-72
2022/04/09 17:42:27;;;;;;;1.52;0.65;;;;;;;;;;6253831;28;20055;-72
2022/04/09 17:45:28;;;;;;;5.68;0.73;;;;;;;;;;6256830;28;20056;-71
2022/04/09 17:48:30;;;;;;;0.98;0.60;;;;;;;;;;6257411;28;20044;-71
2022/04/09 17:51:31;;;;;;;1.20;0.73;;;;;;;;;;6257824;28;20521;-72
2022/04/09 17:54:33;;;;;;;3.17;0.60;;;;;;;;;;6259295;28;20068;-70
2022/04/09 17:57:36;;;;;;;2.85;0.98;;;;;;;;;;6254786;28;20060;-71
2022/04/09 18:00:38;;;;;;;1.43;0.50;;;;;;;;;;6256533;28;20045;-72
2022/04/09 18:03:41;;;;;;;3.28;0.70;;;;;;;;;;6254811;28;20459;-73
2022/04/09 18:06:42;;;;;;;3.95;0.80;;;;;;;;;;6252936;28;20499;-72
2022/04/09 18:09:44;;;;;;;4.00;0.70;;;;;;;;;;6252852;28;20135;-73
2022/04/09 18:12:47;;;;;;;2.40;0.65;;;;;;;;;;6253689;28;20178;-74